Time;durP1;ratioP1;P1;durP2;ratioP2;P2;SDS_P1;SDS_P2;PMS_P1;PMS_P2;Temp;Humidity;BMP_temperature;BMP_pressure;BME280_temperature;BME280_humidity;BME280_pressure;Samples;Min_cycle;Max_cycle;Signal;HPM_P1;HPM_P2
2022/09/12 00:02:14;;;;;;;10.80;7.87;;;13.90;99.90;;;;;;5030997;28;20450;-75
2022/09/12 00:04:42;;;;;;;10.70;8.43;;;13.90;99.90;;;;;;5032542;28;20482;-76
2022/09/12 00:07:09;;;;;;;11.60;7.53;;;13.80;99.90;;;;;;5030517;28;20484;-76
2022/09/12 00:09:35;;;;;;;12.27;8.27;;;13.80;99.90;;;;;;5038193;28;20965;-76
2022/09/12 00:12:02;;;;;;;11.93;9.47;;;13.80;99.90;;;;;;5053658;28;20448;-76
2022/09/12 00:14:29;;;;;;;13.83;9.30;;;13.80;99.90;;;;;;5040662;28;20469;-76
2022/09/12 00:16:58;;;;;;;11.87;8.90;;;13.70;99.90;;;;;;5034179;28;20890;-76
2022/09/12 00:19:24;;;;;;;13.33;9.33;;;13.70;99.90;;;;;;5038818;28;20457;-76
2022/09/12 00:21:53;;;;;;;10.40;8.30;;;13.70;99.90;;;;;;5053185;28;21019;-76
2022/09/12 00:24:20;;;;;;;14.57;9.70;;;13.60;99.90;;;;;;5053321;28;21005;-76
2022/09/12 00:26:46;;;;;;;13.47;8.90;;;13.60;99.90;;;;;;5053226;28;20941;-76
2022/09/12 00:29:16;;;;;;;13.87;9.43;;;13.60;99.90;;;;;;5050724;28;20555;-76
2022/09/12 00:31:43;;;;;;;10.77;9.17;;;13.50;99.90;;;;;;5048308;28;20845;-77
2022/09/12 00:34:10;;;;;;;11.27;8.93;;;13.50;99.90;;;;;;5047627;28;21052;-76
2022/09/12 00:36:36;;;;;;;12.60;9.73;;;13.50;99.90;;;;;;5033643;28;20453;-76
2022/09/12 00:39:06;;;;;;;12.73;9.47;;;13.50;99.90;;;;;;5035279;28;20450;-77
2022/09/12 00:41:36;;;;;;;11.63;9.27;;;13.40;99.90;;;;;;5053079;28;20878;-76
2022/09/12 00:44:24;;;;;;;15.60;9.37;;;13.40;99.90;;;;;;5051048;28;20469;-76
2022/09/12 00:46:54;;;;;;;18.17;9.77;;;13.40;99.90;;;;;;5033317;28;20450;-76
2022/09/12 00:49:26;;;;;;;13.47;9.13;;;13.50;99.90;;;;;;5045717;28;20538;-76
2022/09/12 00:51:55;;;;;;;16.40;10.97;;;13.50;99.90;;;;;;5053228;28;20487;-76
2022/09/12 00:54:27;;;;;;;11.10;9.10;;;13.40;99.90;;;;;;5053118;28;20485;-77
2022/09/12 00:56:57;;;;;;;16.43;10.27;;;13.40;99.90;;;;;;5045064;28;20450;-78
2022/09/12 00:59:29;;;;;;;14.67;10.00;;;13.40;99.90;;;;;;5033274;28;20481;-76
2022/09/12 01:01:56;;;;;;;14.23;10.53;;;13.40;99.90;;;;;;5033136;28;20954;-77
2022/09/12 01:04:26;;;;;;;15.20;10.50;;;13.30;99.90;;;;;;5039174;28;20470;-77
2022/09/12 01:06:54;;;;;;;14.90;11.00;;;13.30;99.90;;;;;;5039397;28;20939;-76
2022/09/12 01:09:24;;;;;;;13.47;10.83;;;13.30;99.90;;;;;;5041610;28;20481;-76
2022/09/12 01:11:53;;;;;;;13.03;10.77;;;13.20;99.90;;;;;;5033247;28;20784;-76
2022/09/12 01:14:20;;;;;;;15.30;11.23;;;13.20;99.90;;;;;;5033555;28;20469;-76
2022/09/12 01:16:48;;;;;;;16.13;11.57;;;13.30;99.90;;;;;;5035450;28;20508;-75
2022/09/12 01:19:31;;;;;;;15.00;11.30;;;13.20;99.90;;;;;;5034606;28;21760;-75
2022/09/12 01:22:11;;;;;;;15.43;11.73;;;13.20;99.90;;;;;;5032153;28;20455;-76
2022/09/12 01:24:51;;;;;;;15.63;11.10;;;13.20;99.90;;;;;;5033138;28;20478;-75
2022/09/12 01:27:46;;;;;;;14.53;11.40;;;13.20;99.90;;;;;;5041215;28;21171;-75
2022/09/12 01:30:44;;;;;;;20.23;11.87;;;13.20;99.90;;;;;;5051751;28;20444;-75
2022/09/12 01:33:43;;;;;;;19.30;10.97;;;13.20;99.90;;;;;;5035892;28;20913;-75
2022/09/12 01:36:33;;;;;;;14.63;10.20;;;13.20;99.90;;;;;;5030158;28;20954;-75
2022/09/12 01:39:02;;;;;;;16.77;11.83;;;13.20;99.90;;;;;;5039358;28;20456;-75
2022/09/12 01:41:37;;;;;;;17.53;11.40;;;13.10;99.90;;;;;;5043344;28;20885;-77
2022/09/12 01:44:11;;;;;;;15.73;11.17;;;13.10;99.90;;;;;;5052252;28;20472;-75
2022/09/12 01:46:45;;;;;;;21.33;11.60;;;13.10;99.90;;;;;;5051627;28;20837;-75
2022/09/12 01:49:17;;;;;;;18.47;12.10;;;13.10;99.90;;;;;;5035925;28;20889;-76
2022/09/12 01:51:52;;;;;;;16.10;11.17;;;13.10;99.90;;;;;;5032389;28;20456;-75
2022/09/12 01:54:24;;;;;;;15.37;11.10;;;13.10;99.90;;;;;;5040646;28;20531;-75
2022/09/12 01:56:56;;;;;;;15.13;11.03;;;13.10;99.90;;;;;;5051758;28;20988;-75
2022/09/12 01:59:28;;;;;;;15.53;11.53;;;13.00;99.90;;;;;;5036489;28;20456;-75
2022/09/12 02:02:01;;;;;;;17.33;11.50;;;13.00;99.90;;;;;;5033273;28;20481;-75
2022/09/12 02:04:33;;;;;;;18.57;12.10;;;13.00;99.90;;;;;;5032985;28;20492;-75
2022/09/12 02:07:06;;;;;;;20.90;11.83;;;13.00;99.90;;;;;;5032285;28;20470;-75
2022/09/12 02:09:37;;;;;;;16.13;12.20;;;12.90;99.90;;;;;;5041143;28;20481;-75
2022/09/12 02:12:08;;;;;;;18.43;12.73;;;12.90;99.90;;;;;;5051169;28;20882;-75
2022/09/12 02:14:40;;;;;;;17.67;12.20;;;13.00;99.90;;;;;;5051586;28;20539;-75
2022/09/12 02:17:12;;;;;;;17.43;11.73;;;12.80;99.90;;;;;;5051786;28;20457;-75
2022/09/12 02:19:43;;;;;;;18.23;12.67;;;12.80;99.90;;;;;;5041319;28;20500;-75
2022/09/12 02:22:14;;;;;;;18.73;12.37;;;12.80;99.90;;;;;;5032142;28;20870;-75
2022/09/12 02:24:43;;;;;;;19.57;12.70;;;12.80;99.90;;;;;;5041154;28;21000;-75
2022/09/12 02:27:14;;;;;;;18.90;13.10;;;12.80;99.90;;;;;;5051235;28;21022;-75
2022/09/12 02:29:41;;;;;;;28.57;14.77;;;12.70;99.90;;;;;;5049545;28;21079;-76
2022/09/12 02:32:21;;;;;;;24.10;13.73;;;12.70;99.90;;;;;;5031532;28;20869;-75
2022/09/12 02:34:54;;;;;;;29.07;15.63;;;12.60;99.90;;;;;;5033181;28;20868;-75
2022/09/12 02:37:29;;;;;;;25.10;14.10;;;12.60;99.90;;;;;;5037939;28;20457;-75
2022/09/12 02:39:57;;;;;;;24.90;15.10;;;12.60;99.90;;;;;;5051555;28;20460;-75
2022/09/12 02:42:24;;;;;;;19.80;13.63;;;12.60;99.90;;;;;;5051169;28;20453;-76
2022/09/12 02:44:54;;;;;;;22.77;14.93;;;12.60;99.90;;;;;;5050694;28;20520;-75
2022/09/12 02:47:28;;;;;;;23.40;14.93;;;12.50;99.90;;;;;;5050605;28;20463;-75
2022/09/12 02:49:56;;;;;;;25.73;15.43;;;12.50;99.90;;;;;;5050204;28;20484;-75
2022/09/12 02:52:23;;;;;;;23.60;15.17;;;12.50;99.90;;;;;;5051341;28;20460;-75
2022/09/12 02:54:51;;;;;;;25.00;13.67;;;12.50;99.90;;;;;;5046167;28;20453;-75
2022/09/12 02:57:20;;;;;;;26.67;14.80;;;12.50;99.90;;;;;;5050955;28;20461;-75
2022/09/12 02:59:48;;;;;;;24.77;15.30;;;12.40;99.90;;;;;;5050775;28;20475;-75
2022/09/12 03:02:27;;;;;;;25.83;15.00;;;12.50;99.90;;;;;;5050850;28;20469;-75
2022/09/12 03:05:10;;;;;;;23.27;15.17;;;12.50;99.90;;;;;;5034680;28;20884;-75
2022/09/12 03:07:51;;;;;;;23.70;14.40;;;12.40;99.90;;;;;;5031909;28;20480;-75
2022/09/12 03:10:27;;;;;;;20.63;13.90;;;12.40;99.90;;;;;;5046242;28;20489;-75
2022/09/12 03:13:03;;;;;;;26.07;14.27;;;12.50;99.90;;;;;;5031217;28;20474;-75
2022/09/12 03:15:42;;;;;;;23.87;15.20;;;12.40;99.90;;;;;;5046749;28;20455;-76
2022/09/12 03:18:23;;;;;;;22.30;13.93;;;12.40;99.90;;;;;;5031305;28;20509;-75
2022/09/12 03:20:57;;;;;;;18.30;13.37;;;12.40;99.90;;;;;;5039155;28;20503;-75
2022/09/12 03:23:30;;;;;;;21.23;14.03;;;12.30;99.90;;;;;;5050712;28;20540;-75
2022/09/12 03:26:01;;;;;;;18.47;13.07;;;12.30;99.90;;;;;;5050528;28;20453;-75
2022/09/12 03:28:28;;;;;;;17.80;12.57;;;12.30;99.90;;;;;;5050671;28;21019;-75
2022/09/12 03:30:55;;;;;;;17.73;12.13;;;12.30;99.90;;;;;;5042836;28;20500;-75
2022/09/12 03:33:25;;;;;;;19.67;13.90;;;12.30;99.90;;;;;;5050300;28;21008;-75
2022/09/12 03:35:53;;;;;;;21.23;13.80;;;12.30;99.90;;;;;;5048950;28;20453;-75
2022/09/12 03:38:19;;;;;;;22.00;13.00;;;12.20;99.90;;;;;;5031820;28;20477;-75
2022/09/12 03:40:46;;;;;;;28.67;14.57;;;12.20;99.90;;;;;;5031444;28;20799;-75
2022/09/12 03:43:13;;;;;;;19.03;12.63;;;12.20;99.90;;;;;;5043720;28;20912;-75
2022/09/12 03:45:39;;;;;;;21.93;14.10;;;12.10;99.90;;;;;;5053036;28;20509;-77
2022/09/12 03:48:06;;;;;;;23.63;15.27;;;12.10;99.90;;;;;;5034924;28;20456;-75
2022/09/12 03:50:34;;;;;;;28.70;16.40;;;12.10;99.90;;;;;;5034788;28;20484;-75
2022/09/12 03:53:01;;;;;;;25.17;14.83;;;12.10;99.90;;;;;;5045010;28;20508;-75
2022/09/12 03:55:28;;;;;;;24.03;14.63;;;12.30;99.90;;;;;;5053982;28;20453;-75
2022/09/12 03:57:55;;;;;;;26.67;15.70;;;12.10;99.90;;;;;;5052059;28;20461;-77
2022/09/12 04:00:22;;;;;;;25.23;14.63;;;12.10;99.90;;;;;;5054263;28;20453;-75
2022/09/12 04:02:52;;;;;;;23.73;14.60;;;12.10;99.90;;;;;;5045725;28;20531;-76
2022/09/12 04:05:19;;;;;;;27.47;15.10;;;12.10;99.90;;;;;;5045832;28;20456;-76
2022/09/12 04:07:47;;;;;;;27.13;15.37;;;12.10;99.90;;;;;;5053741;28;20878;-75
2022/09/12 04:10:14;;;;;;;26.93;15.17;;;12.00;99.90;;;;;;5053951;28;20518;-75
2022/09/12 04:12:40;;;;;;;27.50;15.10;;;12.00;99.90;;;;;;5046567;28;20533;-75
2022/09/12 04:15:09;;;;;;;34.67;16.37;;;12.00;99.90;;;;;;5041965;28;20968;-75
2022/09/12 04:17:35;;;;;;;27.60;15.00;;;12.00;99.90;;;;;;5034507;28;20884;-75
2022/09/12 04:20:03;;;;;;;28.87;16.20;;;11.90;99.90;;;;;;5034511;28;20477;-75
2022/09/12 04:22:30;;;;;;;28.13;16.90;;;11.90;99.90;;;;;;5034481;28;20454;-75
2022/09/12 04:24:58;;;;;;;28.93;16.40;;;11.90;99.90;;;;;;5043349;28;20459;-75
2022/09/12 04:27:25;;;;;;;31.40;16.00;;;11.90;99.90;;;;;;5039961;28;20454;-75
2022/09/12 04:29:52;;;;;;;37.20;16.93;;;12.00;99.90;;;;;;5041425;28;20488;-75
2022/09/12 04:32:19;;;;;;;29.90;15.50;;;12.00;99.90;;;;;;5034824;28;20459;-75
2022/09/12 04:34:46;;;;;;;29.67;15.77;;;11.90;99.90;;;;;;5035320;28;20515;-75
2022/09/12 04:37:12;;;;;;;23.93;15.70;;;11.90;99.90;;;;;;5034184;28;20514;-73
2022/09/12 04:39:40;;;;;;;24.20;14.60;;;11.90;99.90;;;;;;5034103;28;20446;-74
2022/09/12 04:42:08;;;;;;;28.80;15.33;;;11.80;99.90;;;;;;5033922;28;20945;-73
2022/09/12 04:44:34;;;;;;;26.40;15.33;;;11.90;99.90;;;;;;5038220;28;20473;-73
2022/09/12 04:47:02;;;;;;;23.40;14.97;;;12.00;99.90;;;;;;5052792;28;20865;-74
2022/09/12 04:49:28;;;;;;;26.50;15.47;;;12.00;99.90;;;;;;5053264;28;20483;-74
2022/09/12 04:51:55;;;;;;;29.07;15.70;;;12.00;99.90;;;;;;5046574;28;20500;-73
2022/09/12 04:54:21;;;;;;;26.90;15.90;;;11.90;99.90;;;;;;5048394;28;20474;-73
2022/09/12 04:56:51;;;;;;;26.83;15.30;;;11.90;99.90;;;;;;5038754;28;20947;-74
2022/09/12 04:59:21;;;;;;;35.37;15.23;;;11.90;99.90;;;;;;5044595;28;20865;-73
2022/09/12 05:01:48;;;;;;;41.13;16.47;;;11.90;99.90;;;;;;5042105;28;20451;-73
2022/09/12 05:04:15;;;;;;;25.07;15.80;;;11.90;99.90;;;;;;5040180;28;20472;-73
2022/09/12 05:06:42;;;;;;;30.17;15.00;;;11.80;99.90;;;;;;5033205;28;20462;-73
2022/09/12 05:09:12;;;;;;;26.33;15.67;;;11.80;99.90;;;;;;5042012;28;20536;-75
2022/09/12 05:11:42;;;;;;;24.77;14.60;;;11.80;99.90;;;;;;5041211;28;20486;-75
2022/09/12 05:14:10;;;;;;;37.10;15.73;;;11.80;99.90;;;;;;5052078;28;20467;-73
2022/09/12 05:16:38;;;;;;;31.10;15.07;;;11.80;99.90;;;;;;5038339;28;20449;-73
2022/09/12 05:19:04;;;;;;;24.47;14.20;;;11.80;99.90;;;;;;5044244;28;20461;-73
2022/09/12 05:21:31;;;;;;;32.30;16.17;;;11.80;99.90;;;;;;5039671;28;20445;-73
2022/09/12 05:23:58;;;;;;;24.00;15.07;;;11.80;99.90;;;;;;5034806;28;20474;-73
2022/09/12 05:26:26;;;;;;;29.77;15.93;;;11.90;99.90;;;;;;5042527;28;20524;-73
2022/09/12 05:28:53;;;;;;;29.77;15.97;;;11.90;99.90;;;;;;5043019;28;20450;-75
2022/09/12 05:31:21;;;;;;;40.10;14.60;;;12.00;99.90;;;;;;5049326;28;20513;-73
2022/09/12 05:33:51;;;;;;;30.70;14.40;;;12.00;99.90;;;;;;5049074;28;20473;-73
2022/09/12 05:36:19;;;;;;;26.97;15.60;;;12.00;99.90;;;;;;5051451;28;20453;-73
2022/09/12 05:38:47;;;;;;;27.73;14.77;;;12.00;99.90;;;;;;5051739;28;20937;-74
2022/09/12 05:41:15;;;;;;;35.57;13.70;;;12.10;99.90;;;;;;5051881;28;20457;-74
2022/09/12 05:43:42;;;;;;;26.03;14.40;;;12.10;99.90;;;;;;5050087;28;20482;-73
2022/09/12 05:46:12;;;;;;;19.67;13.57;;;12.10;99.90;;;;;;5044290;28;20449;-74
2022/09/12 05:48:41;;;;;;;24.53;13.90;;;12.10;99.90;;;;;;5038230;28;20468;-73
2022/09/12 05:51:11;;;;;;;25.90;14.47;;;12.10;99.90;;;;;;5032820;28;20911;-73
2022/09/12 05:53:39;;;;;;;23.43;13.43;;;12.20;99.90;;;;;;5032744;28;20539;-73
2022/09/12 05:56:08;;;;;;;40.43;14.07;;;12.20;99.90;;;;;;5032336;28;20494;-74
2022/09/12 05:58:36;;;;;;;29.80;13.23;;;12.30;99.90;;;;;;5033689;28;20456;-73
2022/09/12 06:01:06;;;;;;;23.20;13.20;;;12.30;99.90;;;;;;5032500;28;20442;-75
2022/09/12 06:03:32;;;;;;;22.83;12.80;;;12.40;99.90;;;;;;5042522;28;20477;-76
2022/09/12 06:06:02;;;;;;;23.60;14.47;;;12.40;99.90;;;;;;5040702;28;20471;-76
2022/09/12 06:08:30;;;;;;;27.80;13.77;;;12.50;99.90;;;;;;5051006;28;20484;-77
2022/09/12 06:11:02;;;;;;;23.63;13.20;;;12.60;99.90;;;;;;5050965;28;20548;-75
2022/09/12 06:13:30;;;;;;;17.60;12.13;;;12.60;99.90;;;;;;5042880;28;20571;-75
2022/09/12 06:16:03;;;;;;;21.83;13.30;;;12.70;99.90;;;;;;5049808;28;20615;-76
2022/09/12 06:18:29;;;;;;;17.20;12.10;;;12.80;99.90;;;;;;5043993;28;20465;-76
2022/09/12 06:20:56;;;;;;;28.27;13.17;;;12.80;99.90;;;;;;5032368;28;20454;-75
2022/09/12 06:23:22;;;;;;;19.37;14.00;;;12.80;99.90;;;;;;5031502;28;20478;-75
2022/09/12 06:25:50;;;;;;;22.03;14.23;;;12.80;99.90;;;;;;5042623;28;20956;-76
2022/09/12 06:28:18;;;;;;;27.20;14.50;;;12.90;99.90;;;;;;5044543;28;20495;-76
2022/09/12 06:30:45;;;;;;;26.13;14.80;;;12.90;99.90;;;;;;5050533;28;20487;-76
2022/09/12 06:33:11;;;;;;;17.10;13.13;;;13.00;99.90;;;;;;5041828;28;20478;-76
2022/09/12 06:35:38;;;;;;;16.77;13.17;;;13.20;99.90;;;;;;5044754;28;20873;-76
2022/09/12 06:38:05;;;;;;;20.90;13.60;;;13.30;99.90;;;;;;5050448;28;21034;-76
2022/09/12 06:40:32;;;;;;;17.73;12.90;;;13.50;99.90;;;;;;5035932;28;20866;-78
2022/09/12 06:43:00;;;;;;;15.40;12.60;;;14.00;99.90;;;;;;5048411;28;20505;-76
2022/09/12 06:45:26;;;;;;;15.00;11.67;;;14.50;99.90;;;;;;5046820;28;20470;-76
2022/09/12 06:47:54;;;;;;;12.37;10.00;;;15.10;99.90;;;;;;5050370;28;20495;-76
2022/09/12 06:50:21;;;;;;;12.73;10.00;;;15.50;99.90;;;;;;5050387;28;20477;-75
2022/09/12 06:52:49;;;;;;;12.00;10.10;;;16.00;99.90;;;;;;5049296;28;21167;-76
2022/09/12 06:55:16;;;;;;;11.37;9.17;;;16.40;99.90;;;;;;5042340;28;20464;-76
2022/09/12 06:57:43;;;;;;;10.57;9.47;;;16.80;99.90;;;;;;5049924;28;20492;-76
2022/09/12 07:00:13;;;;;;;9.77;8.77;;;17.00;99.90;;;;;;5031336;28;20454;-77
2022/09/12 07:02:39;;;;;;;12.10;9.40;;;17.20;99.90;;;;;;5030953;28;20453;-76
2022/09/12 07:05:07;;;;;;;8.10;7.33;;;17.50;99.90;;;;;;5032099;28;20454;-76
2022/09/12 07:07:34;;;;;;;9.20;7.97;;;17.80;99.90;;;;;;5039023;28;20494;-74
2022/09/12 07:10:01;;;;;;;9.37;8.23;;;17.90;99.90;;;;;;5042008;28;21068;-74
2022/09/12 07:12:28;;;;;;;10.03;7.73;;;18.20;99.90;;;;;;5046026;28;20478;-74
2022/09/12 07:14:55;;;;;;;8.07;7.33;;;18.30;99.90;;;;;;5049501;28;20891;-74
2022/09/12 07:17:23;;;;;;;8.43;7.53;;;18.50;99.90;;;;;;5048945;28;20538;-75
2022/09/12 07:19:49;;;;;;;8.87;7.97;;;18.60;99.90;;;;;;5039002;28;20503;-75
2022/09/12 07:22:16;;;;;;;7.80;7.00;;;18.80;99.90;;;;;;5042398;28;20421;-75
2022/09/12 07:24:44;;;;;;;7.70;7.00;;;18.90;99.90;;;;;;5049287;28;20451;-76
2022/09/12 07:27:11;;;;;;;8.57;7.67;;;19.00;99.90;;;;;;5035332;28;20799;-75
2022/09/12 07:29:38;;;;;;;10.43;8.00;;;19.20;99.90;;;;;;5034678;28;20772;-75
2022/09/12 07:32:05;;;;;;;21.00;7.27;;;19.10;99.90;;;;;;5040918;28;20502;-75
2022/09/12 07:34:33;;;;;;;8.63;7.60;;;19.20;99.90;;;;;;5052008;28;20502;-76
2022/09/12 07:37:00;;;;;;;12.43;7.90;;;19.20;99.90;;;;;;5048248;28;20428;-75
2022/09/12 07:39:26;;;;;;;8.90;7.40;;;19.40;99.90;;;;;;5052071;28;20431;-76
2022/09/12 07:41:53;;;;;;;11.00;8.20;;;19.40;99.90;;;;;;5044649;28;20814;-76
2022/09/12 07:44:21;;;;;;;9.27;7.63;;;19.40;99.90;;;;;;5038708;28;20542;-76
2022/09/12 07:46:47;;;;;;;7.20;6.43;;;19.60;99.90;;;;;;5038949;28;20461;-76
2022/09/12 07:49:14;;;;;;;8.50;6.70;;;19.80;99.90;;;;;;5033606;28;20458;-75
2022/09/12 07:51:42;;;;;;;7.80;6.63;;;20.00;99.90;;;;;;5033938;28;20527;-76
2022/09/12 07:54:09;;;;;;;7.93;6.70;;;20.00;99.90;;;;;;5035157;28;20470;-75
2022/09/12 07:56:35;;;;;;;6.73;6.03;;;20.10;99.90;;;;;;5034158;28;20477;-76
2022/09/12 07:59:02;;;;;;;7.43;6.70;;;20.30;99.90;;;;;;5042222;28;20431;-77
2022/09/12 08:01:29;;;;;;;8.33;7.50;;;20.30;99.90;;;;;;5045631;28;20607;-77
2022/09/12 08:03:58;;;;;;;10.40;8.20;;;20.20;99.90;;;;;;5037198;28;20469;-77
2022/09/12 08:06:27;;;;;;;13.80;7.20;;;20.00;99.90;;;;;;5033816;28;20431;-78
2022/09/12 08:08:57;;;;;;;7.67;6.93;;;20.00;99.90;;;;;;5038853;28;20466;-77
2022/09/12 08:11:25;;;;;;;8.53;7.10;;;20.20;99.90;;;;;;5040639;28;20456;-77
2022/09/12 08:13:54;;;;;;;9.83;6.70;;;20.30;99.90;;;;;;5036598;28;20989;-77
2022/09/12 08:16:22;;;;;;;7.40;6.63;;;20.50;99.90;;;;;;5049548;28;20485;-77
2022/09/12 08:18:49;;;;;;;18.97;7.07;;;20.50;99.90;;;;;;5042658;28;20843;-77
2022/09/12 08:21:18;;;;;;;8.00;7.27;;;20.60;99.90;;;;;;5034793;28;20457;-77
2022/09/12 08:23:46;;;;;;;7.90;6.90;;;20.50;99.90;;;;;;5051020;28;20530;-76
2022/09/12 08:26:14;;;;;;;10.30;7.60;;;20.40;99.90;;;;;;5040143;28;20454;-76
2022/09/12 08:28:45;;;;;;;8.10;7.00;;;20.50;99.90;;;;;;5033526;28;20649;-76
2022/09/12 08:31:14;;;;;;;7.83;6.97;;;20.60;99.90;;;;;;5036737;28;20548;-76
2022/09/12 08:33:41;;;;;;;8.47;6.63;;;20.40;99.90;;;;;;5049607;28;20455;-76
2022/09/12 08:36:11;;;;;;;8.03;6.87;;;20.30;99.90;;;;;;5046434;28;20845;-77
2022/09/12 08:38:39;;;;;;;15.50;7.23;;;19.90;99.90;;;;;;5038062;28;20458;-76
2022/09/12 08:41:12;;;;;;;8.20;7.40;;;19.90;99.90;;;;;;5033303;28;20906;-77
2022/09/12 08:43:52;;;;;;;7.60;6.80;;;20.00;99.90;;;;;;5036841;28;20503;-77
2022/09/12 08:46:24;;;;;;;7.60;6.80;;;20.10;99.90;;;;;;5036869;28;20488;-76
2022/09/12 08:48:52;;;;;;;7.70;6.90;;;20.30;99.90;;;;;;5036069;28;20458;-77
2022/09/12 08:51:20;;;;;;;9.20;6.63;;;20.50;99.90;;;;;;5040234;28;20525;-77
2022/09/12 08:53:50;;;;;;;8.97;7.50;;;20.60;99.90;;;;;;5033057;28;20485;-77
2022/09/12 08:56:17;;;;;;;7.37;6.67;;;20.80;99.90;;;;;;5035303;28;20515;-77
2022/09/12 08:58:46;;;;;;;7.73;6.90;;;21.00;99.90;;;;;;5047281;28;20449;-79
2022/09/12 09:01:23;;;;;;;7.77;6.23;;;21.30;99.90;;;;;;5034712;28;20462;-78
2022/09/12 09:04:07;;;;;;;8.83;6.53;;;21.70;99.90;;;;;;5046372;28;20479;-77
2022/09/12 09:07:06;;;;;;;7.53;6.50;;;21.80;99.90;;;;;;5034656;28;20454;-77
2022/09/12 09:09:44;;;;;;;7.00;6.30;;;21.70;99.90;;;;;;5041828;28;20481;-78
2022/09/12 09:12:20;;;;;;;8.23;6.53;;;21.80;99.90;;;;;;5037581;28;20485;-78
2022/09/12 09:15:01;;;;;;;7.80;7.00;;;21.90;99.90;;;;;;5041941;28;20449;-78
2022/09/12 09:17:34;;;;;;;9.13;8.23;;;21.90;99.90;;;;;;5051060;28;20454;-77
2022/09/12 09:20:05;;;;;;;8.00;7.20;;;21.70;99.90;;;;;;5044254;28;20536;-77
2022/09/12 09:22:41;;;;;;;9.40;8.40;;;21.40;99.90;;;;;;5039947;28;20434;-76
2022/09/12 09:25:15;;;;;;;10.00;8.47;;;21.10;99.90;;;;;;5051034;28;20449;-77
2022/09/12 09:27:46;;;;;;;9.67;8.53;;;21.10;99.90;;;;;;5031547;28;21003;-77
2022/09/12 09:30:17;;;;;;;11.33;8.80;;;21.20;99.90;;;;;;5047660;28;20488;-78
2022/09/12 09:32:48;;;;;;;9.87;8.20;;;21.20;99.90;;;;;;5050846;28;21021;-78
2022/09/12 09:35:18;;;;;;;12.80;8.83;;;21.30;99.90;;;;;;5046935;28;20840;-78
2022/09/12 09:37:58;;;;;;;11.30;8.80;;;21.20;99.90;;;;;;5034504;28;20528;-76
2022/09/12 09:40:30;;;;;;;10.10;8.07;;;21.20;99.90;;;;;;5044087;28;20489;-78
2022/09/12 09:43:03;;;;;;;9.40;7.57;;;21.30;99.90;;;;;;5036400;28;20516;-77
2022/09/12 09:45:31;;;;;;;12.60;9.10;;;21.50;99.90;;;;;;5050204;28;20445;-77
2022/09/12 09:48:03;;;;;;;12.93;8.60;;;21.70;99.90;;;;;;5040685;28;20507;-78
2022/09/12 09:50:30;;;;;;;13.70;10.47;;;21.60;99.90;;;;;;5033082;28;20454;-78
2022/09/12 09:53:01;;;;;;;12.27;9.50;;;21.60;99.90;;;;;;5031898;28;20474;-77
2022/09/12 09:55:37;;;;;;;10.97;8.63;;;21.60;99.90;;;;;;5037601;28;20460;-77
2022/09/12 09:58:04;;;;;;;11.00;8.47;;;21.30;99.90;;;;;;5049490;28;20445;-77
2022/09/12 10:00:33;;;;;;;11.30;9.10;;;21.30;99.90;;;;;;5049809;28;20453;-78
2022/09/12 10:03:25;;;;;;;17.30;9.20;;;21.40;99.90;;;;;;5047992;28;20481;-77
2022/09/12 10:05:53;;;;;;;11.90;8.43;;;21.60;99.90;;;;;;5037117;28;20446;-78
2022/09/12 10:08:22;;;;;;;14.33;8.70;;;21.90;99.90;;;;;;5040286;28;20462;-78
2022/09/12 10:11:01;;;;;;;12.00;9.33;;;22.10;99.90;;;;;;5035096;28;20537;-78
2022/09/12 10:13:36;;;;;;;12.70;10.20;;;22.20;99.90;;;;;;5039562;28;20469;-71
2022/09/12 10:16:06;;;;;;;10.30;8.80;;;22.30;99.90;;;;;;5049543;28;20453;-74
2022/09/12 10:18:39;;;;;;;12.57;8.83;;;22.60;99.90;;;;;;5033053;28;20450;-73
2022/09/12 10:21:28;;;;;;;13.20;8.27;;;22.90;99.90;;;;;;5048902;28;20492;-73
2022/09/12 10:24:02;;;;;;;11.60;8.67;;;23.00;99.90;;;;;;5047174;28;20560;-74
2022/09/12 10:26:34;;;;;;;12.23;8.80;;;22.90;99.90;;;;;;5048007;28;20449;-72
2022/09/12 10:29:15;;;;;;;13.40;9.43;;;22.90;99.90;;;;;;5031165;28;20486;-72
2022/09/12 10:31:47;;;;;;;14.27;9.47;;;22.90;99.90;;;;;;5037492;28;20890;-73
2022/09/12 10:34:29;;;;;;;15.93;9.87;;;22.70;99.90;;;;;;5032506;28;20542;-71
2022/09/12 10:37:05;;;;;;;12.67;8.73;;;22.60;99.90;;;;;;5047677;28;20461;-72
2022/09/12 10:39:34;;;;;;;12.67;9.70;;;22.40;99.90;;;;;;5032326;28;20457;-72
2022/09/12 10:42:01;;;;;;;16.17;10.50;;;22.30;99.90;;;;;;5032790;28;20447;-75
2022/09/12 10:44:30;;;;;;;11.93;9.10;;;22.00;99.90;;;;;;5042022;28;20509;-70
2022/09/12 10:47:00;;;;;;;15.40;9.20;;;22.00;99.90;;;;;;5036056;28;20450;-70
2022/09/12 10:49:29;;;;;;;10.67;8.17;;;22.20;99.90;;;;;;5032110;28;20508;-70
2022/09/12 10:51:58;;;;;;;12.80;9.33;;;22.50;99.90;;;;;;5031244;28;20856;-70
2022/09/12 10:54:27;;;;;;;12.17;8.73;;;22.60;99.90;;;;;;5039039;28;20492;-70
2022/09/12 10:57:34;;;;;;;18.40;11.23;;;22.70;99.90;;;;;;5045451;28;20453;-70
2022/09/12 11:00:13;;;;;;;15.20;10.10;;;22.60;99.90;;;;;;5047577;28;21010;-71
2022/09/12 11:02:50;;;;;;;12.83;9.37;;;22.80;99.90;;;;;;5049115;28;20442;-70
2022/09/12 11:05:35;;;;;;;14.70;9.40;;;22.80;99.90;;;;;;5042152;28;20464;-70
2022/09/12 11:08:09;;;;;;;16.10;9.23;;;22.80;99.90;;;;;;5034775;28;20454;-70
2022/09/12 11:10:45;;;;;;;11.13;7.40;;;22.90;99.90;;;;;;5042711;28;22258;-71
2022/09/12 11:13:25;;;;;;;12.23;8.53;;;23.00;99.90;;;;;;5044880;28;20847;-71
2022/09/12 11:16:06;;;;;;;10.40;8.03;;;23.20;99.90;;;;;;5042293;28;20960;-70
2022/09/12 11:18:46;;;;;;;14.83;8.33;;;23.30;99.90;;;;;;5039268;28;20507;-71
2022/09/12 11:21:28;;;;;;;15.33;6.93;;;23.30;99.90;;;;;;5035351;28;20445;-71
2022/09/12 11:24:12;;;;;;;8.07;6.60;;;23.20;99.90;;;;;;5048795;28;20468;-71
2022/09/12 11:26:57;;;;;;;11.40;7.13;;;23.30;99.90;;;;;;5038686;28;20860;-71
2022/09/12 11:29:45;;;;;;;9.30;6.63;;;23.50;99.90;;;;;;5038566;28;20461;-72
2022/09/12 11:33:00;;;;;;;11.37;6.90;;;23.80;99.90;;;;;;5034754;28;20486;-71
2022/09/12 11:35:30;;;;;;;11.30;8.10;;;23.70;99.90;;;;;;4987214;28;21020;-71
2022/09/12 11:38:17;;;;;;;11.80;7.87;;;23.60;99.90;;;;;;5042054;28;20507;-71
2022/09/12 11:40:51;;;;;;;8.63;7.30;;;23.50;99.90;;;;;;5045880;28;20506;-71
2022/09/12 11:43:28;;;;;;;10.40;7.77;;;23.40;99.90;;;;;;5036617;28;20948;-71
2022/09/12 11:45:59;;;;;;;7.87;6.93;;;23.40;99.90;;;;;;5036063;28;21021;-71
2022/09/12 11:48:35;;;;;;;8.30;7.20;;;23.60;99.90;;;;;;5044320;28;20522;-70
2022/09/12 11:51:04;;;;;;;11.13;7.90;;;23.60;99.90;;;;;;5039285;28;20474;-71
2022/09/12 11:53:36;;;;;;;10.67;7.37;;;23.90;99.90;;;;;;5030099;28;20539;-71
2022/09/12 11:56:09;;;;;;;14.97;6.60;;;24.50;99.90;;;;;;5030646;28;20450;-72
2022/09/12 11:58:39;;;;;;;11.40;8.00;;;25.10;99.90;;;;;;5029798;28;20500;-72
2022/09/12 12:01:13;;;;;;;12.83;6.97;;;25.60;99.90;;;;;;5034208;28;20454;-72
2022/09/12 12:03:42;;;;;;;6.60;5.87;;;25.90;99.90;;;;;;5036380;28;20465;-72
2022/09/12 12:06:17;;;;;;;13.63;7.13;;;26.10;99.90;;;;;;5032623;28;20457;-72
2022/09/12 12:08:45;;;;;;;9.40;6.77;;;26.00;99.90;;;;;;5052671;28;20468;-72
2022/09/12 12:11:14;;;;;;;7.00;6.27;;;26.00;99.90;;;;;;5036670;28;20550;-72
2022/09/12 12:13:47;;;;;;;8.53;5.93;;;25.70;99.90;;;;;;5045358;28;20466;-72
2022/09/12 12:16:20;;;;;;;7.20;6.00;;;26.00;99.90;;;;;;5052534;28;20456;-73
2022/09/12 12:18:55;;;;;;;7.70;6.30;;;26.00;99.90;;;;;;5048755;28;20481;-72
2022/09/12 12:21:38;;;;;;;7.87;6.10;;;26.00;99.90;;;;;;5047955;28;20451;-72
2022/09/12 12:24:15;;;;;;;8.73;6.13;;;25.80;99.90;;;;;;5040571;28;20864;-73
2022/09/12 12:26:44;;;;;;;8.13;6.17;;;25.70;99.90;;;;;;5037330;28;20457;-73
2022/09/12 12:29:12;;;;;;;8.57;6.60;;;25.90;99.90;;;;;;5037167;28;21020;-73
2022/09/12 12:32:12;;;;;;;9.13;6.50;;;25.80;99.90;;;;;;5045309;28;20489;-73
2022/09/12 12:34:40;;;;;;;7.77;6.40;;;25.70;99.90;;;;;;5047722;28;20466;-74
2022/09/12 12:37:48;;;;;;;7.50;5.80;;;26.00;99.90;;;;;;5036848;28;20461;-74
2022/09/12 12:40:24;;;;;;;7.20;5.30;;;26.00;99.90;;;;;;5032766;28;20476;-73
2022/09/12 12:43:04;;;;;;;7.97;5.63;;;25.70;99.90;;;;;;5049742;28;20456;-74
2022/09/12 12:46:09;;;;;;;8.87;6.77;;;25.60;99.90;;;;;;5050061;28;20441;-74
2022/09/12 12:49:09;;;;;;;7.20;5.57;;;25.60;99.90;;;;;;5033389;28;20592;-74
2022/09/12 12:51:54;;;;;;;6.50;5.50;;;25.90;99.90;;;;;;5045886;28;20481;-74
2022/09/12 12:54:51;;;;;;;7.20;6.00;;;26.20;99.90;;;;;;5048031;28;20511;-75
2022/09/12 12:57:47;;;;;;;8.07;5.83;;;26.10;99.90;;;;;;5037510;28;20454;-73
2022/09/12 13:00:30;;;;;;;8.03;6.33;;;26.10;99.90;;;;;;5042122;28;20488;-73